createdAt,value
2023-05-03T00:02:21.801Z,5.43
2023-05-03T00:04:53.571Z,5.17
2023-05-03T00:07:22.946Z,6.10
2023-05-03T00:09:50.984Z,7.30
2023-05-03T00:12:18.875Z,5.57
2023-05-03T00:14:47.142Z,7.70
2023-05-03T00:17:16.651Z,6.70
2023-05-03T00:19:45.162Z,6.63
2023-05-03T00:22:12.997Z,6.40
2023-05-03T00:24:40.997Z,6.43
2023-05-03T00:27:08.834Z,7.33
2023-05-03T00:29:36.651Z,7.33
2023-05-03T00:32:04.636Z,6.20
2023-05-03T00:34:33.799Z,4.93
2023-05-03T00:37:01.606Z,7.03
2023-05-03T00:39:31.261Z,6.70
2023-05-03T00:41:59.757Z,4.80
2023-05-03T00:44:27.752Z,7.77
2023-05-03T00:46:56.866Z,7.43
2023-05-03T00:49:26.553Z,6.90
2023-05-03T00:51:56.175Z,5.93
2023-05-03T00:54:24.513Z,5.13
2023-05-03T00:56:52.752Z,7.37
2023-05-03T00:59:21.083Z,9.77
2023-05-03T01:01:50.883Z,6.57
2023-05-03T01:04:19.262Z,6.87
2023-05-03T01:06:56.737Z,6.77
2023-05-03T01:09:33.880Z,8.80
2023-05-03T01:12:09.768Z,7.27
2023-05-03T01:14:42.366Z,7.67
2023-05-03T01:17:13.409Z,8.37
2023-05-03T01:19:49.867Z,9.17
2023-05-03T01:22:23.442Z,8.67
2023-05-03T01:25:02.250Z,7.97
2023-05-03T01:27:30.059Z,7.60
2023-05-03T01:29:57.936Z,9.27
2023-05-03T01:32:33.052Z,7.27
2023-05-03T01:35:05.680Z,9.50
2023-05-03T01:37:34.388Z,7.60
2023-05-03T01:40:06.447Z,8.23
2023-05-03T01:42:37.111Z,7.87
2023-05-03T01:45:06.088Z,6.87
2023-05-03T01:47:34.000Z,7.13
2023-05-03T01:50:02.041Z,7.17
2023-05-03T01:52:30.288Z,7.60
2023-05-03T01:54:59.488Z,6.00
2023-05-03T01:57:28.676Z,7.13
2023-05-03T01:59:56.664Z,6.70
2023-05-03T02:02:24.469Z,7.23
2023-05-03T02:04:52.484Z,8.30
2023-05-03T02:07:20.373Z,9.53
2023-05-03T02:09:48.261Z,7.60
2023-05-03T02:12:16.069Z,9.87
2023-05-03T02:14:45.191Z,9.37
2023-05-03T02:17:13.319Z,8.03
2023-05-03T02:19:41.105Z,6.57
2023-05-03T02:22:08.908Z,6.87
2023-05-03T02:24:37.313Z,8.00
2023-05-03T02:27:05.332Z,6.53
2023-05-03T02:29:33.146Z,8.33
2023-05-03T02:32:05.238Z,8.47
2023-05-03T02:34:33.868Z,7.33
2023-05-03T02:37:01.713Z,8.90
2023-05-03T02:39:29.753Z,7.67
2023-05-03T02:41:57.560Z,7.07
2023-05-03T02:44:25.373Z,9.73
2023-05-03T02:46:54.665Z,10.30
2023-05-03T02:49:23.852Z,10.37
2023-05-03T02:51:52.965Z,7.73
2023-05-03T02:54:20.785Z,7.57
2023-05-03T02:56:48.622Z,8.17
2023-05-03T02:59:16.406Z,7.93
2023-05-03T03:01:44.377Z,5.47
2023-05-03T03:04:12.209Z,6.63
2023-05-03T03:06:41.566Z,8.13
2023-05-03T03:09:09.414Z,7.97
2023-05-03T03:11:37.358Z,8.03
2023-05-03T03:14:05.180Z,7.67
2023-05-03T03:16:33.105Z,7.13
2023-05-03T03:19:00.966Z,6.73
2023-05-03T03:21:29.706Z,8.07
2023-05-03T03:23:58.908Z,7.50
2023-05-03T03:26:26.722Z,8.43
2023-05-03T03:28:54.533Z,7.73
2023-05-03T03:31:23.262Z,9.53
2023-05-03T03:33:51.194Z,6.93
2023-05-03T03:36:19.121Z,8.03
2023-05-03T03:38:46.973Z,7.90
2023-05-03T03:41:16.126Z,12.10
2023-05-03T03:43:43.949Z,8.70
2023-05-03T03:46:11.959Z,10.83
2023-05-03T03:48:39.744Z,9.70
2023-05-03T03:51:07.585Z,8.77
2023-05-03T03:53:37.103Z,8.17
2023-05-03T03:56:05.199Z,8.70
2023-05-03T03:58:34.453Z,17.53
2023-05-03T04:01:02.292Z,12.37
2023-05-03T04:03:30.333Z,7.50
2023-05-03T04:05:58.204Z,7.63
2023-05-03T04:08:26.000Z,12.43
2023-05-03T04:10:53.808Z,7.63
2023-05-03T04:13:21.652Z,9.67
2023-05-03T04:15:50.751Z,8.83
2023-05-03T04:18:18.543Z,8.40
2023-05-03T04:20:46.413Z,9.13
2023-05-03T04:23:14.252Z,8.40
2023-05-03T04:25:48.795Z,5.93
2023-05-03T04:28:16.878Z,7.43
2023-05-03T04:30:45.133Z,8.83
2023-05-03T04:33:14.638Z,11.63
2023-05-03T04:35:42.592Z,8.37
2023-05-03T04:38:10.848Z,7.87
2023-05-03T04:40:38.662Z,9.47
2023-05-03T04:43:06.566Z,8.63
2023-05-03T04:45:34.370Z,9.07
2023-05-03T04:48:05.407Z,10.93
2023-05-03T04:50:34.939Z,10.77
2023-05-03T04:53:02.791Z,8.30
2023-05-03T04:55:30.681Z,8.43
2023-05-03T04:57:58.503Z,8.57
2023-05-03T05:00:26.333Z,10.73
2023-05-03T05:02:54.305Z,9.20
2023-05-03T05:05:22.246Z,8.90
2023-05-03T05:07:52.685Z,11.67
2023-05-03T05:10:20.487Z,10.13
2023-05-03T05:12:48.325Z,13.47
2023-05-03T05:15:16.191Z,10.43
2023-05-03T05:17:44.386Z,11.30
2023-05-03T05:20:13.416Z,9.90
2023-05-03T05:22:41.309Z,12.57
2023-05-03T05:25:11.020Z,16.47
2023-05-03T05:27:38.800Z,16.77
2023-05-03T05:30:08.073Z,13.73
2023-05-03T05:32:36.058Z,16.70
2023-05-03T05:35:04.436Z,15.40
2023-05-03T05:37:32.324Z,15.60
2023-05-03T05:40:00.210Z,13.73
2023-05-03T05:42:29.440Z,14.97
2023-05-03T05:44:57.370Z,13.67
2023-05-03T05:47:25.479Z,14.63
2023-05-03T05:49:53.386Z,15.90
2023-05-03T05:52:22.002Z,13.10
2023-05-03T05:54:49.765Z,16.53
2023-05-03T05:57:17.578Z,16.10
2023-05-03T05:59:46.750Z,15.00
2023-05-03T06:02:17.690Z,15.93
2023-05-03T06:04:46.794Z,16.20
2023-05-03T06:07:16.183Z,13.20
2023-05-03T06:09:44.073Z,16.50
2023-05-03T06:12:11.895Z,14.93
2023-05-03T06:14:44.021Z,15.50
2023-05-03T06:17:18.460Z,15.77
2023-05-03T06:19:48.821Z,16.07
2023-05-03T06:22:16.746Z,17.37
2023-05-03T06:24:44.600Z,16.53
2023-05-03T06:27:12.368Z,18.10
2023-05-03T06:29:40.456Z,14.43
2023-05-03T06:32:08.247Z,15.33
2023-05-03T06:34:37.491Z,16.67
2023-05-03T06:37:05.301Z,16.83
2023-05-03T06:39:33.140Z,15.03
2023-05-03T06:42:01.085Z,14.50
2023-05-03T06:44:28.954Z,13.63
2023-05-03T06:46:56.853Z,15.47
2023-05-03T06:49:24.684Z,18.67
2023-05-03T06:51:53.838Z,11.67
2023-05-03T06:54:21.663Z,15.77
2023-05-03T06:56:49.471Z,17.37
2023-05-03T06:59:17.588Z,14.23
2023-05-03T07:01:46.131Z,16.20
2023-05-03T07:04:14.158Z,13.63
2023-05-03T07:06:55.470Z,13.90
2023-05-03T07:09:35.446Z,12.83
2023-05-03T07:12:10.615Z,13.70
2023-05-03T07:14:39.071Z,14.03
2023-05-03T07:17:07.408Z,12.50
2023-05-03T07:19:35.307Z,12.87
2023-05-03T07:22:03.505Z,13.93
2023-05-03T07:24:32.709Z,12.83
2023-05-03T07:27:00.673Z,12.57
2023-05-03T07:29:28.559Z,14.93
2023-05-03T07:31:56.397Z,12.17
2023-05-03T07:34:24.245Z,11.67
2023-05-03T07:36:52.197Z,12.77
2023-05-03T07:39:20.120Z,12.57
2023-05-03T07:41:49.372Z,13.00
2023-05-03T07:44:17.156Z,12.00
2023-05-03T07:46:44.955Z,11.93
2023-05-03T07:49:12.786Z,12.33
2023-05-03T07:51:41.103Z,11.33
2023-05-03T07:54:09.017Z,12.27
2023-05-03T07:56:36.815Z,14.33
2023-05-03T07:59:09.928Z,11.23
2023-05-03T08:01:38.384Z,13.13
2023-05-03T08:04:06.827Z,10.87
2023-05-03T08:06:36.048Z,11.13
2023-05-03T08:09:04.557Z,11.20
2023-05-03T08:11:32.596Z,10.87
2023-05-03T08:14:00.389Z,12.23
2023-05-03T08:16:29.633Z,10.87
2023-05-03T08:18:57.606Z,14.43
2023-05-03T08:21:26.241Z,12.73
2023-05-03T08:23:54.659Z,13.00
2023-05-03T08:26:24.260Z,14.53
2023-05-03T08:28:52.133Z,13.43
2023-05-03T08:31:20.035Z,11.20
2023-05-03T08:33:49.214Z,11.57
2023-05-03T08:36:17.147Z,10.67
2023-05-03T08:38:45.130Z,11.87
2023-05-03T08:41:19.933Z,11.67
2023-05-03T08:43:53.368Z,12.83
2023-05-03T08:46:21.449Z,12.70
2023-05-03T08:48:52.666Z,15.50
2023-05-03T08:51:21.445Z,10.73
2023-05-03T08:53:50.031Z,11.13
2023-05-03T08:56:25.501Z,13.57
2023-05-03T08:58:53.363Z,12.13
2023-05-03T09:01:21.323Z,10.77
2023-05-03T09:03:53.543Z,11.70
2023-05-03T09:06:23.092Z,12.30
2023-05-03T09:08:51.189Z,11.90
2023-05-03T09:11:23.607Z,13.77
2023-05-03T09:13:52.953Z,12.50
2023-05-03T09:16:24.612Z,11.47
2023-05-03T09:19:01.029Z,10.97
2023-05-03T09:21:29.472Z,10.83
2023-05-03T09:23:57.306Z,10.90
2023-05-03T09:26:37.584Z,12.20
2023-05-03T09:29:06.021Z,11.90
2023-05-03T09:31:35.325Z,12.00
2023-05-03T09:34:22.589Z,10.77
2023-05-03T09:36:50.468Z,12.27
2023-05-03T09:39:19.810Z,11.17
2023-05-03T09:41:47.926Z,11.40
2023-05-03T09:44:15.766Z,12.20
2023-05-03T09:47:03.584Z,12.47
2023-05-03T09:49:33.824Z,11.37
2023-05-03T09:52:02.583Z,11.90
2023-05-03T09:54:31.908Z,12.93
2023-05-03T09:57:00.773Z,12.37
2023-05-03T09:59:28.863Z,9.90
2023-05-03T10:01:58.890Z,11.33
2023-05-03T10:04:28.966Z,10.40
2023-05-03T10:07:01.322Z,11.40
2023-05-03T10:09:33.466Z,11.43
2023-05-03T10:12:04.133Z,12.53
2023-05-03T10:14:32.460Z,9.80
2023-05-03T10:17:03.527Z,12.60
2023-05-03T10:19:36.657Z,12.17
2023-05-03T10:22:07.699Z,10.07
2023-05-03T10:24:36.411Z,10.60
2023-05-03T10:27:07.613Z,10.43
2023-05-03T10:29:52.354Z,11.93
2023-05-03T10:32:34.424Z,14.57
2023-05-03T10:35:05.639Z,11.93
2023-05-03T10:37:36.190Z,11.00
2023-05-03T10:40:09.718Z,11.20
2023-05-03T10:42:38.803Z,12.13
2023-05-03T10:45:12.586Z,14.53
2023-05-03T10:47:40.833Z,13.50
2023-05-03T10:50:28.213Z,12.63
2023-05-03T10:52:58.654Z,11.23
2023-05-03T10:55:26.753Z,11.97
2023-05-03T10:57:57.566Z,12.77
2023-05-03T11:00:32.138Z,10.93
2023-05-03T11:03:28.991Z,11.83
2023-05-03T11:05:57.445Z,13.03
2023-05-03T11:08:28.013Z,13.00
2023-05-03T11:11:00.408Z,12.60
2023-05-03T11:13:29.204Z,13.00
2023-05-03T11:15:57.577Z,12.10
2023-05-03T11:18:27.932Z,12.57
2023-05-03T11:20:55.914Z,11.63
2023-05-03T11:23:28.131Z,12.03
2023-05-03T11:25:57.492Z,11.10
2023-05-03T11:28:25.436Z,12.40
2023-05-03T11:30:53.315Z,10.70
2023-05-03T11:33:21.197Z,11.70
2023-05-03T11:35:48.988Z,10.23
2023-05-03T11:38:16.817Z,8.50
2023-05-03T11:40:46.015Z,11.00
2023-05-03T11:43:13.953Z,9.80
2023-05-03T11:45:44.054Z,9.13
2023-05-03T11:48:13.256Z,8.53
2023-05-03T11:50:48.359Z,8.50
2023-05-03T11:53:16.985Z,10.83
2023-05-03T11:55:48.011Z,9.83
2023-05-03T11:58:16.185Z,7.37
2023-05-03T12:00:45.704Z,9.87
2023-05-03T12:03:18.888Z,7.53
2023-05-03T12:05:48.373Z,10.97
2023-05-03T12:08:20.646Z,10.93
2023-05-03T12:10:54.389Z,7.80
2023-05-03T12:13:31.158Z,8.00
2023-05-03T12:16:11.785Z,8.30
2023-05-03T12:18:48.212Z,6.60
2023-05-03T12:23:50.340Z,9.77
2023-05-03T12:26:21.486Z,8.27
2023-05-03T12:28:50.386Z,9.23
2023-05-03T12:31:18.661Z,10.27
2023-05-03T12:34:00.118Z,8.07
2023-05-03T12:36:37.406Z,9.63
2023-05-03T12:39:09.262Z,8.07
2023-05-03T12:44:10.794Z,7.10
2023-05-03T12:46:39.673Z,8.67
2023-05-03T12:49:08.762Z,7.63
2023-05-03T12:51:40.772Z,7.63
2023-05-03T12:54:11.692Z,7.73
2023-05-03T12:56:41.627Z,7.23
2023-05-03T13:06:43.845Z,9.33
2023-05-03T13:09:18.986Z,8.23
2023-05-03T13:11:51.074Z,8.27
2023-05-03T13:14:19.001Z,8.27
2023-05-03T13:16:47.408Z,4.90
2023-05-03T13:19:15.562Z,6.57
2023-05-03T13:21:43.558Z,4.07
2023-05-03T13:24:11.373Z,5.37
2023-05-03T13:26:39.178Z,4.30
2023-05-03T13:29:09.441Z,4.57
2023-05-03T13:31:37.363Z,5.17
2023-05-03T13:34:06.801Z,3.60
2023-05-03T13:36:34.910Z,4.97
2023-05-03T13:39:02.854Z,4.17
2023-05-03T13:41:30.695Z,4.17
2023-05-03T13:43:58.490Z,4.20
2023-05-03T13:46:27.818Z,4.43
2023-05-03T13:48:56.433Z,4.33
2023-05-03T13:51:25.594Z,4.90
2023-05-03T13:53:53.381Z,4.73
2023-05-03T13:56:21.667Z,5.33
2023-05-03T13:58:49.472Z,5.23
2023-05-03T14:01:17.793Z,4.97
2023-05-03T14:03:47.164Z,6.00
2023-05-03T14:06:15.123Z,5.60
2023-05-03T14:08:42.934Z,4.73
2023-05-03T14:11:14.499Z,3.57
2023-05-03T14:13:55.544Z,5.43
2023-05-03T14:18:58.315Z,4.83
2023-05-03T14:21:26.401Z,4.43
2023-05-03T14:23:55.784Z,5.37
2023-05-03T14:26:26.097Z,5.73
2023-05-03T14:28:54.067Z,4.63
2023-05-03T14:31:22.018Z,5.57
2023-05-03T14:33:49.867Z,4.90
2023-05-03T14:36:19.036Z,5.53
2023-05-03T14:38:46.860Z,4.03
2023-05-03T14:41:14.632Z,5.70
2023-05-03T14:43:42.424Z,4.63
2023-05-03T14:46:10.433Z,4.50
2023-05-03T14:48:38.891Z,5.80
2023-05-03T14:51:07.226Z,4.43
2023-05-03T14:53:36.608Z,5.17
2023-05-03T14:56:04.794Z,4.40
2023-05-03T14:58:33.006Z,4.50
2023-05-03T15:01:01.138Z,4.43
2023-05-03T15:03:29.068Z,6.07
2023-05-03T15:05:57.025Z,4.70
2023-05-03T15:08:24.857Z,5.43
2023-05-03T15:10:53.996Z,3.33
2023-05-03T15:13:22.102Z,5.70
2023-05-03T15:15:50.080Z,5.17
2023-05-03T15:18:20.337Z,4.83
2023-05-03T15:20:48.229Z,5.73
2023-05-03T15:23:16.024Z,4.37
2023-05-03T15:25:43.803Z,5.03
2023-05-03T15:28:12.961Z,5.83
2023-05-03T15:30:40.781Z,4.10
2023-05-03T15:33:10.711Z,5.17
2023-05-03T15:35:40.033Z,4.67
2023-05-03T15:38:08.204Z,4.00
2023-05-03T15:40:36.037Z,6.73
2023-05-03T15:43:03.869Z,4.77
2023-05-03T15:45:33.449Z,3.67
2023-05-03T15:48:01.921Z,5.00
2023-05-03T15:50:30.846Z,4.70
2023-05-03T15:52:58.823Z,6.43
2023-05-03T15:55:26.907Z,5.07
2023-05-03T15:57:56.995Z,4.10
2023-05-03T16:00:25.991Z,3.77
2023-05-03T16:02:55.694Z,4.33
2023-05-03T16:05:23.738Z,6.10
2023-05-03T16:07:51.842Z,4.70
2023-05-03T16:10:21.700Z,4.10
2023-05-03T16:12:50.970Z,4.07
2023-05-03T16:15:18.912Z,4.77
2023-05-03T16:17:46.763Z,3.97
2023-05-03T16:20:16.104Z,3.20
2023-05-03T16:22:45.345Z,3.90
2023-05-03T16:25:14.060Z,4.80
2023-05-03T16:27:41.889Z,4.10
2023-05-03T16:30:10.780Z,4.17
2023-05-03T16:32:38.631Z,5.23
2023-05-03T16:35:06.959Z,4.00
2023-05-03T16:37:37.518Z,4.80
2023-05-03T16:40:10.436Z,4.07
2023-05-03T16:42:38.976Z,7.93
2023-05-03T16:45:08.579Z,3.57
2023-05-03T16:47:36.620Z,4.07
2023-05-03T16:50:06.558Z,4.70
2023-05-03T16:52:39.660Z,5.67
2023-05-03T16:55:09.033Z,4.03
2023-05-03T16:57:37.125Z,5.23
2023-05-03T17:00:08.904Z,4.37
2023-05-03T17:02:37.463Z,3.50
2023-05-03T17:05:06.107Z,5.07
2023-05-03T17:07:33.959Z,4.20
2023-05-03T17:10:03.898Z,5.00
2023-05-03T17:12:32.066Z,2.83
2023-05-03T17:15:00.565Z,4.73
2023-05-03T17:17:28.413Z,6.20
2023-05-03T17:19:56.382Z,5.63
2023-05-03T17:22:24.231Z,5.13
2023-05-03T17:24:54.608Z,6.77
2023-05-03T17:27:24.311Z,5.40
2023-05-03T17:29:52.200Z,4.50
2023-05-03T17:32:20.025Z,6.93
2023-05-03T17:34:47.838Z,4.73
2023-05-03T17:37:15.669Z,4.43
2023-05-03T17:39:43.507Z,6.27
2023-05-03T17:42:11.285Z,5.90
2023-05-03T17:44:40.892Z,5.00
2023-05-03T17:47:09.340Z,5.70
2023-05-03T17:49:37.687Z,4.83
2023-05-03T17:52:06.492Z,6.23
2023-05-03T17:54:35.068Z,5.03
2023-05-03T17:57:03.345Z,6.20
2023-05-03T17:59:31.195Z,6.57
2023-05-03T18:02:00.645Z,5.30
2023-05-03T18:04:28.664Z,5.63
2023-05-03T18:06:56.461Z,6.07
2023-05-03T18:09:26.622Z,5.10
2023-05-03T18:11:56.311Z,5.07
2023-05-03T18:14:24.147Z,4.97
2023-05-03T18:16:55.127Z,5.53
2023-05-03T18:19:24.842Z,4.73
2023-05-03T18:21:52.692Z,4.63
2023-05-03T18:24:20.528Z,5.40
2023-05-03T18:26:48.387Z,6.43
2023-05-03T18:29:16.225Z,5.60
2023-05-03T18:31:44.279Z,7.07
2023-05-03T18:34:12.183Z,7.40
2023-05-03T18:36:41.424Z,5.67
2023-05-03T18:39:09.655Z,5.90
2023-05-03T18:41:37.517Z,5.57
2023-05-03T18:44:05.592Z,6.43
2023-05-03T18:46:33.394Z,4.70
2023-05-03T18:49:03.361Z,5.13
2023-05-03T18:51:32.453Z,4.60
2023-05-03T18:54:01.733Z,4.03
2023-05-03T18:56:31.283Z,5.13
2023-05-03T18:58:59.178Z,6.13
2023-05-03T19:01:27.394Z,6.83
2023-05-03T19:03:55.402Z,7.90
2023-05-03T19:06:23.337Z,10.77
2023-05-03T19:08:51.162Z,9.00
2023-05-03T19:11:20.296Z,7.70
2023-05-03T19:13:48.109Z,7.63
2023-05-03T19:16:16.574Z,11.03
2023-05-03T19:18:45.347Z,8.93
2023-05-03T19:21:16.948Z,9.90
2023-05-03T19:23:44.839Z,9.67
2023-05-03T19:26:12.724Z,8.87
2023-05-03T19:28:42.023Z,6.47
2023-05-03T19:31:09.985Z,7.73
2023-05-03T19:33:38.075Z,6.87
2023-05-03T19:36:07.195Z,8.77
2023-05-03T19:38:36.110Z,7.40
2023-05-03T19:41:08.216Z,6.30
2023-05-03T19:43:36.107Z,6.70
2023-05-03T19:46:05.493Z,7.40
2023-05-03T19:48:33.682Z,5.80
2023-05-03T19:51:02.453Z,6.37
2023-05-03T19:53:31.377Z,7.70
2023-05-03T19:56:00.564Z,6.70
2023-05-03T19:58:28.812Z,6.07
2023-05-03T20:00:59.023Z,6.57
2023-05-03T20:03:28.544Z,5.60
2023-05-03T20:05:56.503Z,7.13
2023-05-03T20:08:25.048Z,5.70
2023-05-03T20:10:55.249Z,8.17
2023-05-03T20:13:25.776Z,7.23
2023-05-03T20:15:53.824Z,7.90
2023-05-03T20:18:21.925Z,11.07
2023-05-03T20:20:51.085Z,15.90
2023-05-03T20:23:18.939Z,15.37
2023-05-03T20:25:46.769Z,11.73
2023-05-03T20:28:14.579Z,9.30
2023-05-03T20:30:42.405Z,8.57
2023-05-03T20:33:10.895Z,8.13
2023-05-03T20:35:39.016Z,7.87
2023-05-03T20:38:08.310Z,8.13
2023-05-03T20:40:36.305Z,6.90
2023-05-03T20:43:04.292Z,7.30
2023-05-03T20:45:32.854Z,7.80
2023-05-03T20:48:00.783Z,6.63
2023-05-03T20:50:28.635Z,6.70
2023-05-03T20:52:56.704Z,7.63
2023-05-03T20:55:25.899Z,7.03
2023-05-03T20:57:53.719Z,7.80
2023-05-03T21:00:22.273Z,8.50
2023-05-03T21:02:53.716Z,10.20
2023-05-03T21:05:22.429Z,8.77
2023-05-03T21:07:50.601Z,9.13
2023-05-03T21:10:18.462Z,8.40
2023-05-03T21:12:47.749Z,7.27
2023-05-03T21:15:15.835Z,7.97
2023-05-03T21:17:43.754Z,8.67
2023-05-03T21:20:12.472Z,9.13
2023-05-03T21:22:40.284Z,7.77
2023-05-03T21:25:09.281Z,7.57
2023-05-03T21:27:37.134Z,11.83
2023-05-03T21:30:08.093Z,8.83
2023-05-03T21:32:36.019Z,9.70
2023-05-03T21:35:03.856Z,8.47
2023-05-03T21:37:31.935Z,14.43
2023-05-03T21:40:02.492Z,17.00
2023-05-03T21:42:30.792Z,10.10
2023-05-03T21:44:59.022Z,7.80
2023-05-03T21:47:28.490Z,7.70
2023-05-03T21:49:56.314Z,10.77
2023-05-03T21:52:24.179Z,8.00
2023-05-03T21:54:53.593Z,8.10
2023-05-03T21:57:21.401Z,8.13
2023-05-03T21:59:50.134Z,8.07
2023-05-03T22:02:18.166Z,9.97
2023-05-03T22:04:47.336Z,7.93
2023-05-03T22:07:15.466Z,8.20
2023-05-03T22:09:46.261Z,12.23
2023-05-03T22:12:23.372Z,7.40
2023-05-03T22:14:51.693Z,18.40
2023-05-03T22:17:19.759Z,11.37
2023-05-03T22:19:49.075Z,10.50
2023-05-03T22:22:16.926Z,8.30
2023-05-03T22:24:44.778Z,8.23
2023-05-03T22:27:12.968Z,8.17
2023-05-03T22:29:40.760Z,7.43
2023-05-03T22:32:08.794Z,8.63
2023-05-03T22:34:36.665Z,7.83
2023-05-03T22:37:08.566Z,8.23
2023-05-03T22:39:36.526Z,8.17
2023-05-03T22:42:04.836Z,9.43
2023-05-03T22:44:33.416Z,8.87
2023-05-03T22:47:01.581Z,7.60
2023-05-03T22:49:29.417Z,7.73
2023-05-03T22:51:57.234Z,8.23
2023-05-03T22:54:26.978Z,10.07
2023-05-03T22:56:55.199Z,7.30
2023-05-03T22:59:23.040Z,8.03
2023-05-03T23:01:50.870Z,8.53
2023-05-03T23:04:18.804Z,7.57
2023-05-03T23:06:46.631Z,7.73
2023-05-03T23:09:14.456Z,7.43
2023-05-03T23:11:43.681Z,7.97
2023-05-03T23:14:11.502Z,9.00
2023-05-03T23:16:39.695Z,7.03
2023-05-03T23:19:08.272Z,7.90
2023-05-03T23:21:36.224Z,8.63
2023-05-03T23:24:04.076Z,7.20
2023-05-03T23:26:31.885Z,9.10
2023-05-03T23:29:01.583Z,9.23
2023-05-03T23:31:35.365Z,9.00
2023-05-03T23:34:05.366Z,8.97
2023-05-03T23:36:34.070Z,7.90
2023-05-03T23:39:01.948Z,9.60
2023-05-03T23:41:29.793Z,10.00
2023-05-03T23:43:57.607Z,11.30
2023-05-03T23:46:26.774Z,8.90
2023-05-03T23:48:54.889Z,9.90
2023-05-03T23:51:22.750Z,11.30
2023-05-03T23:53:50.609Z,10.17
2023-05-03T23:56:18.506Z,11.70
2023-05-03T23:58:46.309Z,12.93
